Live from Altenrhein
LIVE
LSZR 231150Z 28014KT 9999 FEW070 31/15 Q1017 NOSIG RMK J

People´s C-Office:

T: +41 (0)71 858 51 65

E: c-office@peoples.ch

Hangar Space

Station your aircraft in Altenrhein.

The People’s Business Airport St. Gallen-Altenrhein is the ideal place to station your aircraft. Our hangars A1-A3 as well as the C-hangars C1-C5 offer more than enough space to hangar your aircraft in a secure environment. Depending on availability, aircraft parking on short notice may be available, especially during snowfall, storms, or other bad weather conditions. Our C5 hangar offers space for aircraft up to the size of a Gulfstream G5.

In addition to aircraft hangars, longterm outside parking is always available.

 

We would be happy to send you an individual quote, customized to your wishes and requirements.

Interested? Come visit us for a complete picture of our facilities.

 

25% discount on all hangar parking fees from 1st of May - 31st of November 2017

Request for Aircraft Storage Hangar Space
Name / Surname *   Address *
 
                                   
Country *   Phone *
 
E-Mail Address *   Aircraft Owner *
 
Aircraft Operator *

Aircraft Registration *   Aircraft Manufacturer *   Aircraft Type *
   
Length (meters) *   Width (meters) *   Height (meters) *
   
MTOW *   Period *
 
Start date *   End date (if temporary)